Time;durP1;ratioP1;P1;durP2;ratioP2;P2;SDS_P1;SDS_P2;PMS_P1;PMS_P2;Temp;Humidity;BMP_temperature;BMP_pressure;BME280_temperature;BME280_humidity;BME280_pressure;Samples;Min_cycle;Max_cycle;Signal;HPM_P1;HPM_P2
2021/06/07 00:02:06;;;;;;;1.80;1.15;;;18.00;82.20;;;;;;4926261;29;20467;-76
2021/06/07 00:04:33;;;;;;;1.98;1.10;;;17.80;79.30;;;;;;4927623;29;20063;-78
2021/06/07 00:07:04;;;;;;;1.98;1.08;;;18.00;79.80;;;;;;4925261;29;20031;-78
2021/06/07 00:09:32;;;;;;;2.03;1.35;;;17.70;80.70;;;;;;4925729;29;20058;-77
2021/06/07 00:12:03;;;;;;;2.10;1.00;;;17.90;81.10;;;;;;4925511;29;20027;-77
2021/06/07 00:14:33;;;;;;;2.08;0.80;;;18.30;77.70;;;;;;4926452;29;20031;-76
2021/06/07 00:17:02;;;;;;;1.25;0.82;;;18.70;78.30;;;;;;4927240;28;20039;-76
2021/06/07 00:19:33;;;;;;;1.30;1.20;;;19.50;77.30;;;;;;4925119;29;20350;-75
2021/06/07 00:22:01;;;;;;;2.60;1.60;;;19.40;76.00;;;;;;4923741;29;20383;-76
2021/06/07 00:24:28;;;;;;;2.95;1.10;;;19.00;76.50;;;;;;4927521;29;20082;-76
2021/06/07 00:26:56;;;;;;;1.20;1.02;;;19.60;77.70;;;;;;4926999;29;20061;-77
2021/06/07 00:29:24;;;;;;;1.88;1.73;;;20.40;76.10;;;;;;4925850;29;20035;-71
2021/06/07 00:31:51;;;;;;;1.40;0.98;;;20.60;75.00;;;;;;4938969;28;20130;-71
2021/06/07 00:34:19;;;;;;;2.15;1.10;;;20.90;71.70;;;;;;4923130;29;20044;-72
2021/06/07 00:36:47;;;;;;;1.27;0.88;;;20.40;73.70;;;;;;4927106;29;20028;-72
2021/06/07 00:39:16;;;;;;;1.45;0.90;;;20.30;74.20;;;;;;4925144;29;20031;-74
2021/06/07 00:41:46;;;;;;;1.35;0.95;;;20.80;74.80;;;;;;4927825;29;20028;-72
2021/06/07 00:44:18;;;;;;;1.42;1.05;;;21.10;73.80;;;;;;4921165;29;20078;-72
2021/06/07 00:46:46;;;;;;;3.28;1.00;;;20.90;70.20;;;;;;4925640;29;20441;-72
2021/06/07 00:49:14;;;;;;;2.22;1.00;;;21.10;71.50;;;;;;4906695;29;20071;-74
2021/06/07 00:51:43;;;;;;;1.60;0.90;;;21.20;67.90;;;;;;4921346;29;20398;-72
2021/06/07 00:54:13;;;;;;;1.70;0.82;;;20.50;69.00;;;;;;4905693;29;20027;-71
2021/06/07 00:56:41;;;;;;;2.50;0.82;;;20.30;69.30;;;;;;4924960;29;20039;-73
2021/06/07 00:59:09;;;;;;;1.75;0.93;;;20.60;68.80;;;;;;4923229;29;20028;-71
2021/06/07 01:01:36;;;;;;;1.48;0.65;;;21.30;67.00;;;;;;4923777;29;20047;-71
2021/06/07 01:04:05;;;;;;;0.85;0.70;;;22.10;67.40;;;;;;4923805;29;20038;-72
2021/06/07 01:06:32;;;;;;;2.22;0.70;;;22.30;65.60;;;;;;4920455;29;20046;-70
2021/06/07 01:09:01;;;;;;;2.05;0.80;;;21.70;67.30;;;;;;4923372;29;20036;-73
2021/06/07 01:11:28;;;;;;;1.38;0.77;;;22.60;63.60;;;;;;4927011;29;20047;-74
2021/06/07 01:13:55;;;;;;;1.02;0.70;;;23.20;64.40;;;;;;4924008;29;20054;-73
2021/06/07 01:16:23;;;;;;;1.40;1.10;;;23.40;60.80;;;;;;4922613;29;20043;-71
2021/06/07 01:18:51;;;;;;;1.60;1.15;;;23.40;60.50;;;;;;4924535;29;20728;-75
2021/06/07 01:21:23;;;;;;;1.10;0.80;;;22.80;61.60;;;;;;4924589;29;20031;-72
2021/06/07 01:23:52;;;;;;;1.58;0.77;;;22.40;61.80;;;;;;4930703;28;20054;-73
2021/06/07 01:26:22;;;;;;;0.90;0.65;;;22.90;62.40;;;;;;4928414;29;20050;-74
2021/06/07 01:28:50;;;;;;;3.20;1.27;;;23.30;62.30;;;;;;4926093;29;20036;-74
2021/06/07 01:31:19;;;;;;;2.15;0.85;;;23.70;61.30;;;;;;4926389;29;20090;-73
2021/06/07 01:33:50;;;;;;;1.17;0.73;;;24.10;60.90;;;;;;4923950;29;20028;-71
2021/06/07 01:36:18;;;;;;;1.20;0.95;;;24.10;62.00;;;;;;4921261;29;20070;-72
2021/06/07 01:38:46;;;;;;;1.58;0.82;;;24.00;59.70;;;;;;4923539;29;20549;-71
2021/06/07 01:41:16;;;;;;;2.20;1.00;;;24.10;58.70;;;;;;4921740;29;20069;-72
2021/06/07 01:43:44;;;;;;;2.72;1.02;;;24.40;59.50;;;;;;4925815;29;20028;-70
2021/06/07 01:46:12;;;;;;;1.33;0.80;;;24.50;59.30;;;;;;4924065;29;20071;-70
2021/06/07 01:48:39;;;;;;;2.05;1.08;;;23.70;60.30;;;;;;4924791;29;20035;-70
2021/06/07 01:51:08;;;;;;;2.00;1.02;;;23.80;60.40;;;;;;4925798;29;20104;-70
2021/06/07 01:53:37;;;;;;;0.50;0.40;;;24.20;58.00;;;;;;4916464;29;20031;-70
2021/06/07 01:56:07;;;;;;;1.38;0.70;;;23.80;58.00;;;;;;4910755;29;20493;-71
2021/06/07 01:58:35;;;;;;;2.67;0.82;;;23.80;59.20;;;;;;4926066;29;20043;-71
2021/06/07 02:01:10;;;;;;;1.85;0.77;;;23.30;60.10;;;;;;4923900;29;20080;-71
2021/06/07 02:03:39;;;;;;;2.30;1.55;;;23.50;60.90;;;;;;4921237;29;20043;-73
2021/06/07 02:06:09;;;;;;;3.85;0.70;;;23.90;63.50;;;;;;4924317;29;20040;-71
2021/06/07 02:08:37;;;;;;;1.45;0.77;;;24.30;58.30;;;;;;4926523;29;20027;-71
2021/06/07 02:11:06;;;;;;;1.20;0.85;;;24.40;58.00;;;;;;4929013;29;20031;-73
2021/06/07 02:13:34;;;;;;;2.65;0.68;;;23.80;57.30;;;;;;4924290;29;20032;-73
2021/06/07 02:16:06;;;;;;;1.17;0.68;;;24.00;57.40;;;;;;4922387;29;20646;-71
2021/06/07 02:18:36;;;;;;;1.00;0.60;;;24.50;57.00;;;;;;4924733;29;20047;-73
2021/06/07 02:21:06;;;;;;;0.80;0.60;;;25.10;56.20;;;;;;4919668;29;20032;-72
2021/06/07 02:23:34;;;;;;;2.65;0.60;;;25.20;56.80;;;;;;4906673;29;20028;-73
2021/06/07 02:26:02;;;;;;;1.65;1.20;;;25.50;56.10;;;;;;4921060;29;20028;-73
2021/06/07 02:28:29;;;;;;;1.50;0.82;;;25.80;58.10;;;;;;4922352;29;20111;-70
2021/06/07 02:30:58;;;;;;;1.50;0.82;;;25.80;55.30;;;;;;4924103;29;20016;-74
2021/06/07 02:33:25;;;;;;;1.13;0.70;;;25.80;55.50;;;;;;4920961;29;20132;-70
2021/06/07 02:35:53;;;;;;;1.17;0.60;;;25.70;55.40;;;;;;4923291;29;20024;-72
2021/06/07 02:38:20;;;;;;;1.35;0.70;;;25.30;54.00;;;;;;4926245;29;20040;-71
2021/06/07 02:40:50;;;;;;;1.40;0.80;;;25.10;55.10;;;;;;4921818;29;20036;-71
2021/06/07 02:43:19;;;;;;;1.20;0.77;;;24.90;55.90;;;;;;4922100;29;20100;-72
2021/06/07 02:45:47;;;;;;;1.30;0.60;;;24.20;54.00;;;;;;4924133;29;20032;-73
2021/06/07 02:48:15;;;;;;;4.25;1.38;;;23.90;56.40;;;;;;4925487;29;20028;-72
2021/06/07 02:50:46;;;;;;;0.98;0.45;;;23.90;56.30;;;;;;4923374;29;20036;-72
2021/06/07 02:53:14;;;;;;;1.42;0.50;;;23.50;57.60;;;;;;4922777;29;20086;-71
2021/06/07 02:55:46;;;;;;;0.98;0.40;;;23.70;58.90;;;;;;4926371;29;20036;-71
2021/06/07 02:58:14;;;;;;;1.48;0.50;;;23.60;58.20;;;;;;4931761;29;20043;-72
2021/06/07 03:00:45;;;;;;;0.57;0.40;;;23.20;58.60;;;;;;4931289;29;20043;-71
2021/06/07 03:03:13;;;;;;;1.63;0.60;;;22.80;58.50;;;;;;4930152;29;20063;-71
2021/06/07 03:05:41;;;;;;;1.75;0.50;;;22.30;60.00;;;;;;4929719;29;20145;-71
2021/06/07 03:08:11;;;;;;;1.05;0.50;;;22.30;60.00;;;;;;4898559;29;20035;-71
2021/06/07 03:10:41;;;;;;;1.83;0.50;;;22.10;62.30;;;;;;4925164;29;20479;-70
2021/06/07 03:13:09;;;;;;;1.42;0.50;;;22.10;62.70;;;;;;4927203;29;20028;-70
2021/06/07 03:15:36;;;;;;;1.15;0.40;;;22.10;62.40;;;;;;4923531;29;20585;-71
2021/06/07 03:18:04;;;;;;;2.15;0.50;;;22.20;63.00;;;;;;4928670;29;20054;-71
2021/06/07 03:20:33;;;;;;;4.05;0.40;;;22.00;61.50;;;;;;4924618;29;20033;-71
2021/06/07 03:23:04;;;;;;;0.90;0.40;;;21.90;62.10;;;;;;4928738;29;20052;-71
2021/06/07 03:25:32;;;;;;;1.48;0.68;;;22.10;63.40;;;;;;4927402;29;20028;-74
2021/06/07 03:28:00;;;;;;;0.80;0.40;;;22.10;62.60;;;;;;4927329;29;20055;-69
2021/06/07 03:30:28;;;;;;;1.98;0.80;;;21.80;64.10;;;;;;4926633;29;20032;-70
2021/06/07 03:32:55;;;;;;;0.82;0.40;;;21.50;65.00;;;;;;4924334;29;20024;-71
2021/06/07 03:35:23;;;;;;;0.52;0.40;;;21.10;66.00;;;;;;4922573;29;20023;-71
2021/06/07 03:37:51;;;;;;;2.03;0.40;;;20.60;65.60;;;;;;4927576;29;20059;-70
2021/06/07 03:40:25;;;;;;;1.55;0.60;;;20.40;67.90;;;;;;4926101;29;20038;-73
2021/06/07 03:42:54;;;;;;;0.45;0.30;;;20.10;68.30;;;;;;4930527;29;20387;-70
2021/06/07 03:45:21;;;;;;;0.57;0.40;;;20.10;68.80;;;;;;4924967;29;20372;-73
2021/06/07 03:47:49;;;;;;;1.05;0.57;;;20.00;69.40;;;;;;4927456;29;20031;-73
2021/06/07 03:50:20;;;;;;;1.88;0.55;;;19.90;70.50;;;;;;4925640;29;20023;-72
2021/06/07 03:52:48;;;;;;;1.15;0.45;;;19.70;70.60;;;;;;4922688;29;20034;-71
2021/06/07 03:55:18;;;;;;;0.30;0.30;;;19.70;71.10;;;;;;4926053;29;20027;-72
2021/06/07 03:57:46;;;;;;;0.40;0.30;;;19.70;70.70;;;;;;4926648;29;20594;-70
2021/06/07 04:00:20;;;;;;;1.15;0.38;;;19.60;70.70;;;;;;4925322;29;20050;-72
2021/06/07 04:02:47;;;;;;;0.50;0.30;;;19.50;72.00;;;;;;4924807;29;20032;-68
2021/06/07 04:05:15;;;;;;;1.75;0.30;;;19.50;70.90;;;;;;4926123;29;20031;-70
2021/06/07 04:07:43;;;;;;;2.15;0.63;;;19.40;71.10;;;;;;4926267;29;20031;-73
2021/06/07 04:10:17;;;;;;;0.73;0.28;;;19.30;72.20;;;;;;4929428;29;20032;-71
2021/06/07 04:12:46;;;;;;;0.75;0.55;;;19.10;71.90;;;;;;4926919;29;20079;-69
2021/06/07 04:15:15;;;;;;;0.77;0.50;;;19.00;72.80;;;;;;4923022;29;20020;-70
2021/06/07 04:17:43;;;;;;;2.40;0.40;;;18.90;73.60;;;;;;4925926;29;20458;-69
2021/06/07 04:20:13;;;;;;;0.68;0.40;;;18.80;73.80;;;;;;4924705;29;20023;-70
2021/06/07 04:22:41;;;;;;;1.98;0.30;;;18.70;74.30;;;;;;4925682;29;20023;-69
2021/06/07 04:25:10;;;;;;;1.17;0.45;;;18.60;74.80;;;;;;4923735;29;20688;-70
2021/06/07 04:27:39;;;;;;;1.80;0.50;;;18.60;75.40;;;;;;4924618;29;20491;-69
2021/06/07 04:30:12;;;;;;;1.38;0.63;;;18.60;75.50;;;;;;4923987;29;20086;-68
2021/06/07 04:32:41;;;;;;;2.05;0.68;;;18.60;75.30;;;;;;4925472;29;20134;-68
2021/06/07 04:35:11;;;;;;;1.23;0.68;;;18.60;75.80;;;;;;4924195;29;20028;-69
2021/06/07 04:37:53;;;;;;;0.95;0.50;;;18.70;76.90;;;;;;4924202;29;20162;-72
2021/06/07 04:40:31;;;;;;;1.52;0.82;;;18.70;76.10;;;;;;4924048;29;20488;-70
2021/06/07 04:43:03;;;;;;;0.95;0.40;;;18.60;76.00;;;;;;4926080;29;20043;-69
2021/06/07 04:45:30;;;;;;;3.67;0.80;;;18.60;76.90;;;;;;4926023;29;20384;-70
2021/06/07 04:47:58;;;;;;;1.85;0.40;;;18.60;78.30;;;;;;4922911;29;20055;-71
2021/06/07 04:50:27;;;;;;;0.45;0.35;;;18.50;76.90;;;;;;4923321;29;20040;-72
2021/06/07 04:53:00;;;;;;;0.80;0.57;;;18.50;76.90;;;;;;4924544;29;20391;-71
2021/06/07 04:55:33;;;;;;;2.97;0.50;;;18.50;77.40;;;;;;4924024;29;20093;-70
2021/06/07 04:58:07;;;;;;;1.92;0.60;;;18.50;78.70;;;;;;4924096;29;20480;-71
2021/06/07 05:00:36;;;;;;;0.73;0.35;;;18.50;78.60;;;;;;4923391;29;20044;-69
2021/06/07 05:03:04;;;;;;;1.60;0.55;;;18.40;78.50;;;;;;4924843;29;20039;-71
2021/06/07 05:05:31;;;;;;;1.40;0.50;;;18.50;79.10;;;;;;4924829;29;20024;-69
2021/06/07 05:07:58;;;;;;;0.95;0.20;;;18.50;77.70;;;;;;4922535;29;20027;-71
2021/06/07 05:10:26;;;;;;;1.20;0.60;;;18.40;78.30;;;;;;4922981;29;20444;-69
2021/06/07 05:12:54;;;;;;;0.82;0.35;;;18.50;77.80;;;;;;4924055;29;20499;-70
2021/06/07 05:15:22;;;;;;;0.50;0.30;;;18.40;77.60;;;;;;4922702;29;20031;-71
2021/06/07 05:17:50;;;;;;;0.98;0.50;;;18.50;78.50;;;;;;4922151;29;20127;-70
2021/06/07 05:20:26;;;;;;;1.50;0.50;;;18.40;78.50;;;;;;4921593;29;20038;-70
2021/06/07 05:22:55;;;;;;;2.88;0.40;;;18.40;80.00;;;;;;4921675;29;20127;-71
2021/06/07 05:25:24;;;;;;;1.27;0.30;;;18.40;78.40;;;;;;4924019;29;20086;-71
2021/06/07 05:27:53;;;;;;;0.85;0.50;;;18.40;79.00;;;;;;4925998;29;20027;-72
2021/06/07 05:30:23;;;;;;;1.23;0.30;;;18.30;78.60;;;;;;4924901;29;20032;-70
2021/06/07 05:32:52;;;;;;;0.90;0.38;;;18.30;79.00;;;;;;4924453;29;20035;-70
2021/06/07 05:35:21;;;;;;;1.85;0.68;;;18.40;78.70;;;;;;4908285;29;20036;-70
2021/06/07 05:37:49;;;;;;;2.35;0.40;;;18.40;78.30;;;;;;4924526;29;20398;-69
2021/06/07 05:40:18;;;;;;;0.93;0.30;;;18.40;78.70;;;;;;4925670;29;20424;-72
2021/06/07 05:42:46;;;;;;;2.92;0.88;;;18.40;78.60;;;;;;4925590;29;20061;-71
2021/06/07 05:45:15;;;;;;;0.70;0.32;;;18.40;78.60;;;;;;4927126;29;20032;-71
2021/06/07 05:47:43;;;;;;;1.33;0.45;;;18.50;78.60;;;;;;4924920;29;20427;-73
2021/06/07 05:50:15;;;;;;;1.60;0.70;;;18.50;80.00;;;;;;4922827;29;20024;-70
2021/06/07 05:52:46;;;;;;;1.48;0.40;;;18.50;79.80;;;;;;4924226;29;21038;-72
2021/06/07 05:55:21;;;;;;;2.95;0.55;;;18.50;79.60;;;;;;4922354;29;20031;-72
2021/06/07 05:57:51;;;;;;;2.78;0.70;;;18.60;79.50;;;;;;4924206;29;20046;-72
2021/06/07 06:00:22;;;;;;;1.38;0.40;;;18.60;78.80;;;;;;4921756;29;20068;-72
2021/06/07 06:02:49;;;;;;;5.00;0.82;;;18.50;80.20;;;;;;4922092;29;20047;-73
2021/06/07 06:05:18;;;;;;;2.40;0.52;;;18.50;79.70;;;;;;4909843;29;20179;-73
2021/06/07 06:07:46;;;;;;;1.92;1.13;;;18.50;79.90;;;;;;4918528;29;20027;-72
2021/06/07 06:10:15;;;;;;;3.63;0.77;;;18.60;80.40;;;;;;4922001;29;20111;-72
2021/06/07 06:12:44;;;;;;;4.78;0.68;;;18.60;80.10;;;;;;4925031;29;20110;-73
2021/06/07 06:15:13;;;;;;;1.90;0.70;;;18.70;80.20;;;;;;4923173;29;20046;-73
2021/06/07 06:17:40;;;;;;;3.55;0.80;;;18.70;80.40;;;;;;4925507;29;20039;-73
2021/06/07 06:20:09;;;;;;;1.60;0.60;;;18.50;80.50;;;;;;4922478;29;20032;-74
2021/06/07 06:22:36;;;;;;;1.15;0.70;;;18.40;81.30;;;;;;4924354;29;20069;-73
2021/06/07 06:25:06;;;;;;;1.70;0.88;;;18.40;81.90;;;;;;4922884;29;20027;-72
2021/06/07 06:27:34;;;;;;;3.40;0.90;;;18.30;82.30;;;;;;4923841;29;20039;-73
2021/06/07 06:30:04;;;;;;;1.33;0.85;;;18.20;82.40;;;;;;4925710;29;20137;-72
2021/06/07 06:32:31;;;;;;;2.22;1.13;;;18.10;83.20;;;;;;4927588;29;20115;-72
2021/06/07 06:34:59;;;;;;;2.53;0.75;;;18.00;84.10;;;;;;4926356;29;20034;-72
2021/06/07 06:37:26;;;;;;;3.17;1.70;;;17.80;85.30;;;;;;4928932;29;20048;-71
2021/06/07 06:39:53;;;;;;;1.30;0.90;;;17.60;85.50;;;;;;4926349;29;20043;-72
2021/06/07 06:42:21;;;;;;;1.83;1.05;;;17.50;86.40;;;;;;4925884;29;20035;-71
2021/06/07 06:44:48;;;;;;;1.90;1.10;;;17.30;86.90;;;;;;4927753;29;20020;-71
2021/06/07 06:47:16;;;;;;;2.60;0.85;;;17.10;87.50;;;;;;4926474;29;20030;-70
2021/06/07 06:49:43;;;;;;;2.20;1.35;;;17.00;87.80;;;;;;4926555;29;20040;-70
2021/06/07 06:52:10;;;;;;;2.88;1.08;;;16.80;88.40;;;;;;4908566;29;20035;-71
2021/06/07 06:54:38;;;;;;;2.83;1.25;;;16.70;89.00;;;;;;4924294;29;20036;-71
2021/06/07 06:57:06;;;;;;;3.53;2.00;;;16.50;90.20;;;;;;4927265;29;20047;-70
2021/06/07 06:59:33;;;;;;;2.85;1.60;;;16.40;90.60;;;;;;4925848;29;20036;-72
2021/06/07 07:02:00;;;;;;;3.55;1.52;;;16.30;90.70;;;;;;4928457;29;20735;-72
2021/06/07 07:04:28;;;;;;;3.05;1.60;;;16.20;91.20;;;;;;4925980;29;20062;-71
2021/06/07 07:06:55;;;;;;;1.88;1.42;;;16.10;91.70;;;;;;4928549;29;20087;-70
2021/06/07 07:09:22;;;;;;;4.53;1.48;;;16.00;92.00;;;;;;4928206;29;20030;-70
2021/06/07 07:11:50;;;;;;;4.80;1.67;;;15.90;92.00;;;;;;4927841;29;20024;-70
2021/06/07 07:14:18;;;;;;;4.25;1.52;;;15.70;92.20;;;;;;4923755;29;20034;-71
2021/06/07 07:16:45;;;;;;;2.83;1.50;;;15.60;92.50;;;;;;4924530;29;20035;-71
2021/06/07 07:19:13;;;;;;;1.88;1.33;;;15.40;92.70;;;;;;4927615;29;20059;-71
2021/06/07 07:21:40;;;;;;;2.10;1.40;;;15.30;92.90;;;;;;4927469;29;20074;-72
2021/06/07 07:24:09;;;;;;;1.77;1.00;;;15.20;93.40;;;;;;4925855;29;20028;-72
2021/06/07 07:26:37;;;;;;;4.30;1.58;;;15.10;93.50;;;;;;4928236;29;20099;-70
2021/06/07 07:29:04;;;;;;;3.10;1.88;;;15.00;93.80;;;;;;4926973;29;20024;-70
2021/06/07 07:31:32;;;;;;;3.35;1.92;;;15.00;94.00;;;;;;4926240;29;20035;-71
2021/06/07 07:33:59;;;;;;;5.43;1.98;;;14.90;94.00;;;;;;4927607;29;20111;-71
2021/06/07 07:36:26;;;;;;;4.03;1.50;;;14.90;94.50;;;;;;4926892;29;20056;-71
2021/06/07 07:38:54;;;;;;;3.58;1.88;;;14.80;94.50;;;;;;4926803;29;20036;-70
2021/06/07 07:41:21;;;;;;;4.85;2.30;;;14.70;94.40;;;;;;4928291;29;20546;-71
2021/06/07 07:43:49;;;;;;;1.83;1.30;;;14.70;94.70;;;;;;4926343;29;20040;-70
2021/06/07 07:46:16;;;;;;;3.83;1.95;;;14.60;94.50;;;;;;4908652;29;20032;-71
2021/06/07 07:48:43;;;;;;;4.95;1.63;;;14.50;94.80;;;;;;4928099;29;20036;-72
2021/06/07 07:51:11;;;;;;;4.88;1.40;;;14.40;94.90;;;;;;4926880;29;20454;-70
2021/06/07 07:53:38;;;;;;;3.35;1.90;;;14.30;95.40;;;;;;4924196;29;20158;-70
2021/06/07 07:56:07;;;;;;;3.85;1.58;;;14.10;95.90;;;;;;4929885;29;20459;-69
2021/06/07 07:58:35;;;;;;;3.38;1.63;;;14.10;95.90;;;;;;4927468;29;20426;-69
2021/06/07 08:01:02;;;;;;;2.67;1.35;;;14.10;95.90;;;;;;4928554;29;20087;-71
2021/06/07 08:03:29;;;;;;;3.05;1.70;;;14.00;96.00;;;;;;4924975;29;20028;-73
2021/06/07 08:05:57;;;;;;;3.13;1.58;;;13.90;96.00;;;;;;4926601;29;20023;-70
2021/06/07 08:08:25;;;;;;;3.42;2.05;;;13.90;95.90;;;;;;4927515;29;20106;-70
2021/06/07 08:10:55;;;;;;;3.47;1.27;;;13.90;96.10;;;;;;4929802;29;20402;-70
2021/06/07 08:13:24;;;;;;;3.78;2.17;;;13.80;96.40;;;;;;4910584;29;20031;-69
2021/06/07 08:15:52;;;;;;;3.60;2.08;;;13.70;96.10;;;;;;4924097;29;20103;-69
2021/06/07 08:18:20;;;;;;;7.07;2.60;;;13.70;96.10;;;;;;4925700;29;20043;-71
2021/06/07 08:20:50;;;;;;;4.53;2.20;;;13.60;96.40;;;;;;4927731;29;20043;-71
2021/06/07 08:23:18;;;;;;;6.45;2.53;;;13.50;96.50;;;;;;4925698;29;20394;-69
2021/06/07 08:25:45;;;;;;;6.75;2.85;;;13.50;96.70;;;;;;4910182;29;20530;-70
2021/06/07 08:28:13;;;;;;;3.30;1.95;;;13.40;96.90;;;;;;4928174;29;20458;-69
2021/06/07 08:30:40;;;;;;;5.30;2.35;;;13.40;96.60;;;;;;4925023;29;20027;-70
2021/06/07 08:33:08;;;;;;;4.28;2.35;;;13.30;96.60;;;;;;4930939;29;20027;-70
2021/06/07 08:35:37;;;;;;;11.27;5.25;;;13.20;97.20;;;;;;4925294;29;20084;-71
2021/06/07 08:38:05;;;;;;;6.80;4.88;;;13.10;97.40;;;;;;4930420;29;21511;-69
2021/06/07 08:40:33;;;;;;;9.48;5.15;;;13.10;97.20;;;;;;4924942;29;20027;-69
2021/06/07 08:43:00;;;;;;;7.65;5.05;;;13.00;97.20;;;;;;4926223;29;20118;-69
2021/06/07 08:45:28;;;;;;;9.70;5.78;;;12.90;97.30;;;;;;4925148;29;20031;-69
2021/06/07 08:47:56;;;;;;;6.70;3.95;;;12.90;97.60;;;;;;4925881;29;20036;-71
2021/06/07 08:50:29;;;;;;;9.73;5.25;;;12.80;97.40;;;;;;4907667;29;20042;-68
2021/06/07 08:52:57;;;;;;;12.48;5.60;;;12.70;97.50;;;;;;4927431;29;20024;-71
2021/06/07 08:55:28;;;;;;;8.13;4.70;;;12.70;97.50;;;;;;4927370;29;20067;-70
2021/06/07 08:57:56;;;;;;;10.27;4.93;;;12.60;97.60;;;;;;4927030;29;20039;-69
2021/06/07 09:00:27;;;;;;;11.10;5.03;;;12.60;98.00;;;;;;4927399;29;20059;-71
2021/06/07 09:03:14;;;;;;;11.88;5.07;;;12.50;97.80;;;;;;4925297;29;20490;-70
2021/06/07 09:05:43;;;;;;;11.23;5.43;;;12.50;97.90;;;;;;4928253;29;20035;-71
2021/06/07 09:08:15;;;;;;;9.77;5.30;;;12.50;98.00;;;;;;4926449;29;20053;-69
2021/06/07 09:10:51;;;;;;;8.68;5.22;;;12.50;98.00;;;;;;4927264;29;20442;-71
2021/06/07 09:13:22;;;;;;;13.80;5.35;;;12.50;98.40;;;;;;4922998;29;20032;-71
2021/06/07 09:15:55;;;;;;;7.95;5.25;;;12.50;98.40;;;;;;4925385;29;20027;-71
2021/06/07 09:18:36;;;;;;;11.90;5.30;;;12.50;98.50;;;;;;4924700;29;20090;-71
2021/06/07 09:21:16;;;;;;;13.77;8.20;;;12.50;98.70;;;;;;4926681;29;20028;-71
2021/06/07 09:23:55;;;;;;;10.30;6.72;;;12.50;98.80;;;;;;4929391;29;20063;-70
2021/06/07 09:26:40;;;;;;;11.15;6.70;;;12.50;98.70;;;;;;4927470;29;20040;-71
2021/06/07 09:29:10;;;;;;;12.02;8.35;;;12.40;98.50;;;;;;4923004;29;20375;-72
2021/06/07 09:31:44;;;;;;;16.08;11.30;;;12.30;98.60;;;;;;4923838;29;20027;-71
2021/06/07 09:34:23;;;;;;;17.15;11.45;;;12.20;98.90;;;;;;4925462;29;20430;-70
2021/06/07 09:36:50;;;;;;;19.10;10.85;;;12.10;98.80;;;;;;4921889;29;20376;-70
2021/06/07 09:39:21;;;;;;;13.82;10.88;;;12.10;98.70;;;;;;4919697;29;20433;-69
2021/06/07 09:41:56;;;;;;;17.58;11.27;;;12.00;98.70;;;;;;4925501;29;20074;-72
2021/06/07 09:44:45;;;;;;;15.38;10.50;;;12.00;98.60;;;;;;4927170;29;20513;-69
2021/06/07 09:47:14;;;;;;;16.30;11.30;;;11.90;98.40;;;;;;4926698;28;20031;-70
2021/06/07 09:49:52;;;;;;;15.95;10.23;;;11.80;99.00;;;;;;4928795;29;21027;-70
2021/06/07 09:52:32;;;;;;;16.85;10.68;;;11.70;98.90;;;;;;4930260;28;20094;-69
2021/06/07 09:55:22;;;;;;;15.00;10.43;;;11.70;99.10;;;;;;4922366;29;20020;-72
2021/06/07 09:57:55;;;;;;;15.98;10.30;;;11.60;99.10;;;;;;4925474;29;20044;-70
2021/06/07 10:00:36;;;;;;;14.10;10.52;;;11.50;99.30;;;;;;4924318;29;20122;-69
2021/06/07 10:03:25;;;;;;;13.23;8.88;;;11.40;99.00;;;;;;4928995;29;20110;-69
2021/06/07 10:06:01;;;;;;;12.90;8.60;;;11.40;99.10;;;;;;4928927;29;20036;-69
2021/06/07 10:08:46;;;;;;;13.35;7.22;;;11.30;99.20;;;;;;4928569;29;20020;-69
2021/06/07 10:11:23;;;;;;;12.63;7.35;;;11.10;99.60;;;;;;4925919;29;20376;-70
2021/06/07 10:14:03;;;;;;;11.32;6.18;;;11.00;99.70;;;;;;4923468;29;20028;-69
2021/06/07 10:16:31;;;;;;;11.50;6.93;;;10.90;99.80;;;;;;4926795;29;20023;-70
2021/06/07 10:19:02;;;;;;;13.13;6.30;;;10.80;99.90;;;;;;4923518;29;20031;-70
2021/06/07 10:21:30;;;;;;;12.82;6.32;;;10.80;99.90;;;;;;4924038;29;20051;-73
2021/06/07 10:23:58;;;;;;;12.55;6.22;;;10.80;99.90;;;;;;4927182;29;20020;-71
2021/06/07 10:26:25;;;;;;;11.48;6.07;;;10.80;99.90;;;;;;4929072;29;20032;-70
2021/06/07 10:28:54;;;;;;;10.80;6.25;;;10.80;99.90;;;;;;4926221;29;20379;-70
2021/06/07 10:31:23;;;;;;;14.30;6.75;;;10.80;99.90;;;;;;4924914;29;20109;-71
2021/06/07 10:34:01;;;;;;;15.52;8.23;;;10.70;99.90;;;;;;4925160;29;20031;-69
2021/06/07 10:36:30;;;;;;;11.80;5.93;;;10.80;99.90;;;;;;4924247;29;20446;-71
2021/06/07 10:39:19;;;;;;;9.55;5.53;;;10.80;99.90;;;;;;4923329;29;20075;-70
2021/06/07 10:42:16;;;;;;;12.25;6.03;;;10.80;99.90;;;;;;4928434;29;20027;-70
2021/06/07 10:44:50;;;;;;;10.25;6.70;;;10.90;99.90;;;;;;4927006;29;20027;-71
2021/06/07 10:47:29;;;;;;;10.82;7.13;;;10.90;99.90;;;;;;4922580;29;20071;-70
2021/06/07 10:49:59;;;;;;;12.35;7.38;;;10.80;99.90;;;;;;4923901;29;20020;-69
2021/06/07 10:52:29;;;;;;;13.30;8.80;;;10.80;99.90;;;;;;4922897;29;20706;-71
2021/06/07 10:55:05;;;;;;;17.27;9.88;;;10.80;99.90;;;;;;4927224;29;20082;-70
2021/06/07 10:57:51;;;;;;;13.68;9.18;;;10.70;99.90;;;;;;4923933;29;20023;-70
2021/06/07 11:00:31;;;;;;;12.90;8.23;;;10.70;99.90;;;;;;4924897;29;20078;-70
2021/06/07 11:03:04;;;;;;;15.88;9.07;;;10.70;99.90;;;;;;4917550;29;20020;-71
2021/06/07 11:05:33;;;;;;;16.15;9.32;;;10.60;99.90;;;;;;4924141;29;20040;-70
2021/06/07 11:08:09;;;;;;;25.95;11.65;;;10.60;99.90;;;;;;4925740;29;20436;-70
2021/06/07 11:10:42;;;;;;;21.48;11.43;;;10.60;99.90;;;;;;4920518;29;20364;-71
2021/06/07 11:13:12;;;;;;;21.95;12.07;;;10.50;99.90;;;;;;4924207;29;20035;-68
2021/06/07 11:15:50;;;;;;;16.33;10.88;;;10.50;99.90;;;;;;4922574;29;20119;-71
2021/06/07 11:18:26;;;;;;;14.85;10.45;;;10.40;99.90;;;;;;4930294;29;20426;-71
2021/06/07 11:21:07;;;;;;;16.92;11.07;;;10.40;99.90;;;;;;4928541;29;20030;-71
2021/06/07 11:23:40;;;;;;;18.48;10.38;;;10.40;99.90;;;;;;4928008;29;20498;-69
2021/06/07 11:26:20;;;;;;;17.63;9.95;;;10.30;99.90;;;;;;4924264;29;20040;-69
2021/06/07 11:29:06;;;;;;;17.85;10.73;;;10.20;99.90;;;;;;4922515;29;20035;-71
2021/06/07 11:31:33;;;;;;;16.95;9.32;;;10.20;99.90;;;;;;4928979;29;20036;-71
2021/06/07 11:34:05;;;;;;;18.98;10.93;;;10.10;99.90;;;;;;4921368;29;20032;-70
2021/06/07 11:36:43;;;;;;;17.40;9.25;;;10.10;99.90;;;;;;4931485;29;20035;-69
2021/06/07 11:39:17;;;;;;;16.52;9.70;;;10.10;99.90;;;;;;4924609;29;20391;-69
2021/06/07 11:41:47;;;;;;;12.55;9.27;;;10.10;99.90;;;;;;4930498;29;20533;-70
2021/06/07 11:44:16;;;;;;;13.32;8.43;;;10.10;99.90;;;;;;4925267;29;20062;-71
2021/06/07 11:46:43;;;;;;;13.07;7.00;;;10.20;99.90;;;;;;4928864;29;20040;-70
2021/06/07 11:49:14;;;;;;;8.68;5.78;;;10.50;99.90;;;;;;4930553;29;20023;-70
2021/06/07 11:51:57;;;;;;;8.25;5.57;;;10.60;99.90;;;;;;4932237;29;20050;-69
2021/06/07 11:54:28;;;;;;;8.98;4.80;;;10.90;99.90;;;;;;4925591;29;20024;-70
2021/06/07 11:56:57;;;;;;;6.82;5.18;;;10.90;99.90;;;;;;4924643;29;20127;-69
2021/06/07 11:59:26;;;;;;;7.00;5.13;;;11.00;99.90;;;;;;4909944;29;20629;-71
2021/06/07 12:01:53;;;;;;;8.98;5.55;;;11.00;99.90;;;;;;4926725;29;20122;-69
2021/06/07 12:04:32;;;;;;;7.53;4.75;;;11.10;99.90;;;;;;4927743;29;20024;-70
2021/06/07 12:07:04;;;;;;;10.15;4.20;;;11.10;99.90;;;;;;4922314;29;20028;-72
2021/06/07 12:09:34;;;;;;;7.65;5.10;;;11.20;99.90;;;;;;4930805;29;20079;-72
2021/06/07 12:12:02;;;;;;;12.93;6.53;;;11.10;99.90;;;;;;4926360;29;20046;-72
2021/06/07 12:14:36;;;;;;;11.68;7.68;;;11.10;99.90;;;;;;4933225;28;20032;-72
2021/06/07 12:17:09;;;;;;;15.48;8.68;;;11.00;99.90;;;;;;4927763;29;20036;-69
2021/06/07 12:19:42;;;;;;;13.18;9.90;;;10.90;99.90;;;;;;4929278;29;20024;-68
2021/06/07 12:22:32;;;;;;;17.50;9.48;;;10.90;99.90;;;;;;4928965;29;20028;-69
2021/06/07 12:30:46;;;;;;;16.15;9.07;;;10.90;99.90;;;;;;4925471;29;20525;-72
2021/06/07 12:33:14;;;;;;;12.98;8.30;;;10.90;99.90;;;;;;4928684;29;20250;-71
2021/06/07 12:35:42;;;;;;;10.18;7.68;;;10.90;99.90;;;;;;4927257;29;20451;-72
2021/06/07 12:38:11;;;;;;;13.98;8.25;;;10.70;99.90;;;;;;4926138;29;20078;-70
2021/06/07 12:40:41;;;;;;;10.98;7.85;;;10.60;99.90;;;;;;4928833;29;20130;-72
2021/06/07 12:43:08;;;;;;;14.73;7.88;;;10.50;99.90;;;;;;4929141;29;20055;-71
2021/06/07 12:45:37;;;;;;;13.13;7.32;;;10.40;99.90;;;;;;4927029;29;20024;-68
2021/06/07 12:48:24;;;;;;;15.02;7.97;;;10.40;99.90;;;;;;4925618;29;20028;-71
2021/06/07 12:50:54;;;;;;;11.90;6.93;;;10.30;99.90;;;;;;4926733;29;20031;-69
2021/06/07 12:53:24;;;;;;;11.32;7.32;;;10.30;99.90;;;;;;4927078;29;20410;-70
2021/06/07 12:55:54;;;;;;;14.60;7.85;;;10.20;99.90;;;;;;4922051;29;20082;-70
2021/06/07 12:58:29;;;;;;;16.00;8.27;;;10.20;99.90;;;;;;4925533;29;20043;-70
2021/06/07 13:01:05;;;;;;;13.20;8.43;;;10.10;99.90;;;;;;4926545;29;20114;-70
2021/06/07 13:03:36;;;;;;;13.38;7.85;;;10.10;99.90;;;;;;4930810;29;20035;-69
2021/06/07 13:06:17;;;;;;;10.20;6.55;;;10.00;99.90;;;;;;4927924;29;20059;-70